Hickory Ridge, Arkansas
Current Conditions -  °F | °C
As of 10:56 PM on Saturday 25 Oct 2014 (Local Time) from KM19 Reporting Station
Haze Haze  
Wind Chill: 65°   Ceiling: Unl
Heat Index: 65°   Visibility: 6mi
Dew Point: 62°   Wind: 6mph
Humidity: 90%   Direction: 200°SSW
Pressure: 30.02"   Gusts: NA
Location:  35.4°N, 91°W
Report Text: KM19 260356Z AUTO 20005KT 6SM BR CLR 18/17 A3002 RMK AO2 T01830166 SLP164
Loading
Personal Weather Stations






























Interactive Weather Map
Tropical Storm Tracking
New forecast layout! Learn more

10-Day Weather Forecast

Advertisements
Track Severe Weather on mobile